CGWSK CYKA-CYLW
Flight info
| Callsign | CGWSK |
|---|---|
| Flight time | N/A |
| Altitude | 13000 |
| Route | KEBRA1 KEBRA DCT WTMAN |
| Aircraft | C750/M-SBDE3FGHRWXY/S |
Departure
| Time | 2026-04-13 04:11 |
|---|---|
| Airport | Kamloops John Moose Fulton Field Regional Airport (CYKA) |
Arrival
| Time | N/A |
|---|---|
| Airport | Kelowna International Airport (CYLW) |
| Time | Latitude | Longitude | Altitude | Speed | Heading |
|---|---|---|---|---|---|
| 2026-04-13 03:55 | 50.70589 | -120.43758 | 1136 ft | 0 kts | 234° |
| 2026-04-13 04:07 | 50.70583 | -120.43771 | 1138 ft | 5 kts | 233° |
| 2026-04-13 04:07 | 50.70529 | -120.43839 | 1136 ft | 15 kts | 218° |
| 2026-04-13 04:07 | 50.70468 | -120.43991 | 1140 ft | 12 kts | 227° |
| 2026-04-13 04:07 | 50.70422 | -120.44104 | 1140 ft | 8 kts | 240° |
| 2026-04-13 04:08 | 50.70403 | -120.44164 | 1138 ft | 10 kts | 243° |
| 2026-04-13 04:08 | 50.70362 | -120.44281 | 1139 ft | 14 kts | 238° |
| 2026-04-13 04:08 | 50.70291 | -120.44380 | 1140 ft | 15 kts | 191° |
| 2026-04-13 04:08 | 50.70251 | -120.44506 | 1138 ft | 19 kts | 283° |
| 2026-04-13 04:09 | 50.70292 | -120.44771 | 1138 ft | 27 kts | 283° |
| 2026-04-13 04:09 | 50.70342 | -120.45098 | 1141 ft | 37 kts | 283° |
| 2026-04-13 04:09 | 50.70413 | -120.45572 | 1143 ft | 51 kts | 283° |
| 2026-04-13 04:09 | 50.70502 | -120.46163 | 1136 ft | 50 kts | 287° |
| 2026-04-13 04:10 | 50.70558 | -120.46436 | 1136 ft | 9 kts | 285° |
| 2026-04-13 04:10 | 50.70543 | -120.46449 | 1136 ft | 3 kts | 125° |
| 2026-04-13 04:10 | 50.70490 | -120.46100 | 1137 ft | 80 kts | 102° |
| 2026-04-13 04:10 | 50.70306 | -120.44896 | 1254 ft | 129 kts | 104° |
| 2026-04-13 04:11 | 50.70084 | -120.43430 | 1728 ft | 144 kts | 103° |
| 2026-04-13 04:11 | 50.69830 | -120.41766 | 2075 ft | 171 kts | 104° |
| 2026-04-13 04:11 | 50.69526 | -120.39846 | 2623 ft | 189 kts | 105° |
| 2026-04-13 04:11 | 50.69173 | -120.37771 | 3298 ft | 203 kts | 106° |
| 2026-04-13 04:12 | 50.68765 | -120.35599 | 4158 ft | 210 kts | 107° |
| 2026-04-13 04:12 | 50.68294 | -120.33424 | 5006 ft | 210 kts | 119° |
| 2026-04-13 04:12 | 50.67417 | -120.31609 | 5907 ft | 206 kts | 131° |
| 2026-04-13 04:12 | 50.66487 | -120.29912 | 6802 ft | 202 kts | 131° |